createdAt,value
2022-08-26T00:00:48.066Z,89.28
2022-08-26T00:01:48.091Z,89.28
2022-08-26T00:02:48.038Z,89.18
2022-08-26T00:03:48.077Z,89.22
2022-08-26T00:04:48.031Z,89.22
2022-08-26T00:05:48.025Z,89.22
2022-08-26T00:06:49.024Z,89.22
2022-08-26T00:07:48.009Z,89.52
2022-08-26T00:08:47.959Z,89.52
2022-08-26T00:09:47.940Z,89.42
2022-08-26T00:10:48.152Z,89.62
2022-08-26T00:11:47.939Z,89.82
2022-08-26T00:12:48.769Z,89.72
2022-08-26T00:13:49.589Z,90.06
2022-08-26T00:14:48.221Z,90.06
2022-08-26T00:15:47.931Z,90.06
2022-08-26T00:16:49.012Z,90.06
2022-08-26T00:17:48.052Z,90.06
2022-08-26T00:18:48.474Z,90.16
2022-08-26T00:19:47.824Z,90.56
2022-08-26T00:20:47.855Z,90.46
2022-08-26T00:21:48.555Z,90.77
2022-08-26T00:22:47.783Z,90.81
2022-08-26T00:23:47.795Z,90.56
2022-08-26T00:24:48.530Z,90.16
2022-08-26T00:25:47.786Z,89.66
2022-08-26T00:26:47.727Z,89.56
2022-08-26T00:27:47.816Z,89.12
2022-08-26T00:28:48.126Z,88.92
2022-08-26T00:29:47.714Z,88.71
2022-08-26T00:30:47.950Z,88.42
2022-08-26T00:31:47.734Z,88.21
2022-08-26T00:32:47.923Z,87.82
2022-08-26T00:33:48.256Z,87.41
2022-08-26T00:34:48.076Z,87.41
2022-08-26T00:35:47.896Z,87.21
2022-08-26T00:36:50.878Z,87.18
2022-08-26T00:37:48.026Z,87.07
2022-08-26T00:38:47.696Z,87.18
2022-08-26T00:39:47.775Z,87.27
2022-08-26T00:40:47.600Z,87.27
2022-08-26T00:41:47.827Z,87.37
2022-08-26T00:42:47.840Z,87.62
2022-08-26T00:43:48.100Z,87.62
2022-08-26T00:44:48.277Z,87.82
2022-08-26T00:45:47.964Z,87.82
2022-08-26T00:46:48.375Z,87.62
2022-08-26T00:47:47.588Z,87.71
2022-08-26T00:48:48.000Z,87.71
2022-08-26T00:49:48.545Z,87.71
2022-08-26T00:50:47.674Z,87.82
2022-08-26T00:51:47.544Z,87.62
2022-08-26T00:52:48.273Z,87.62
2022-08-26T00:53:47.439Z,87.92
2022-08-26T00:54:47.668Z,87.92
2022-08-26T00:55:47.594Z,88.12
2022-08-26T00:56:47.570Z,88.12
2022-08-26T00:57:47.375Z,88.21
2022-08-26T00:58:47.443Z,88.21
2022-08-26T00:59:47.683Z,88.42
2022-08-26T01:00:47.507Z,88.32
2022-08-26T01:01:47.655Z,88.36
2022-08-26T01:02:47.569Z,88.46
2022-08-26T01:03:47.713Z,88.56
2022-08-26T01:04:47.647Z,88.86
2022-08-26T01:05:47.494Z,88.86
2022-08-26T01:06:47.628Z,88.96
2022-08-26T01:07:47.319Z,89.06
2022-08-26T01:08:47.522Z,89.61
2022-08-26T01:09:47.272Z,89.70
2022-08-26T01:10:47.730Z,90.11
2022-08-26T01:11:47.533Z,90.41
2022-08-26T01:12:47.529Z,90.35
2022-08-26T01:13:47.198Z,90.45
2022-08-26T01:14:47.337Z,90.25
2022-08-26T01:15:47.202Z,89.70
2022-08-26T01:16:47.331Z,89.40
2022-08-26T01:17:47.562Z,89.20
2022-08-26T01:18:47.560Z,89.11
2022-08-26T01:19:47.335Z,88.96
2022-08-26T01:20:47.427Z,88.96
2022-08-26T01:21:47.225Z,88.86
2022-08-26T01:22:47.194Z,88.86
2022-08-26T01:23:47.298Z,89.06
2022-08-26T01:24:47.255Z,89.16
2022-08-26T01:25:47.194Z,89.16
2022-08-26T01:26:47.361Z,89.26
2022-08-26T01:27:47.247Z,89.46
2022-08-26T01:28:50.623Z,89.81
2022-08-26T01:29:47.104Z,89.90
2022-08-26T01:30:47.267Z,89.90
2022-08-26T01:31:47.410Z,89.81
2022-08-26T01:32:47.098Z,89.90
2022-08-26T01:33:47.166Z,89.90
2022-08-26T01:34:47.254Z,89.90
2022-08-26T01:35:47.107Z,89.70
2022-08-26T01:36:51.171Z,89.81
2022-08-26T01:37:47.234Z,90.00
2022-08-26T01:38:47.118Z,89.90
2022-08-26T01:39:47.135Z,89.90
2022-08-26T01:40:47.065Z,90.00
2022-08-26T01:41:47.262Z,90.35
2022-08-26T01:42:48.466Z,90.25
2022-08-26T01:43:46.905Z,90.45
2022-08-26T01:44:47.124Z,90.65
2022-08-26T01:45:47.065Z,90.55
2022-08-26T01:46:47.904Z,90.85
2022-08-26T01:47:47.155Z,90.95
2022-08-26T01:48:47.208Z,91.30
2022-08-26T01:49:47.284Z,91.60
2022-08-26T01:50:46.952Z,91.69
2022-08-26T01:51:47.073Z,91.89
2022-08-26T01:52:49.883Z,91.80
2022-08-26T01:53:46.988Z,91.75
2022-08-26T01:54:50.542Z,91.65
2022-08-26T01:55:47.000Z,91.45
2022-08-26T01:56:46.964Z,91.15
2022-08-26T01:57:46.795Z,91.35
2022-08-26T01:58:46.786Z,91.25
2022-08-26T01:59:46.895Z,91.25
2022-08-26T02:00:47.520Z,91.15
2022-08-26T02:01:46.783Z,91.25
2022-08-26T02:02:46.778Z,91.35
2022-08-26T02:03:46.701Z,91.50
2022-08-26T02:04:46.704Z,91.55
2022-08-26T02:05:46.744Z,91.65
2022-08-26T02:06:46.817Z,91.85
2022-08-26T02:07:46.772Z,91.65
2022-08-26T02:08:46.630Z,91.55
2022-08-26T02:09:46.706Z,91.45
2022-08-26T02:10:46.659Z,91.45
2022-08-26T02:11:46.606Z,91.15
2022-08-26T02:12:46.752Z,91.45
2022-08-26T02:13:46.638Z,91.39
2022-08-26T02:14:46.506Z,91.39
2022-08-26T02:15:46.513Z,91.69
2022-08-26T02:16:46.591Z,91.80
2022-08-26T02:17:46.548Z,91.89
2022-08-26T02:18:47.021Z,92.40
2022-08-26T02:19:46.640Z,92.40
2022-08-26T02:20:46.549Z,92.20
2022-08-26T02:21:46.484Z,92.20
2022-08-26T02:22:46.450Z,92.04
2022-08-26T02:23:46.527Z,92.34
2022-08-26T02:24:47.083Z,92.44
2022-08-26T02:25:46.559Z,92.44
2022-08-26T02:26:46.578Z,92.34
2022-08-26T02:27:46.492Z,92.40
2022-08-26T02:28:46.488Z,92.40
2022-08-26T02:29:46.460Z,92.30
2022-08-26T02:30:46.630Z,92.40
2022-08-26T02:31:46.550Z,92.40
2022-08-26T02:32:49.563Z,92.10
2022-08-26T02:33:46.332Z,91.89
2022-08-26T02:34:46.332Z,91.69
2022-08-26T02:35:46.258Z,91.69
2022-08-26T02:36:46.379Z,91.60
2022-08-26T02:37:46.282Z,91.60
2022-08-26T02:38:46.544Z,91.69
2022-08-26T02:39:46.264Z,92.04
2022-08-26T02:40:46.194Z,92.65
2022-08-26T02:41:46.433Z,92.70
2022-08-26T02:42:46.269Z,92.50
2022-08-26T02:43:46.480Z,92.54
2022-08-26T02:44:46.368Z,92.34
2022-08-26T02:45:46.163Z,92.34
2022-08-26T02:46:47.244Z,92.54
2022-08-26T02:47:46.142Z,93.04
2022-08-26T02:48:46.218Z,93.24
2022-08-26T02:49:47.201Z,93.44
2022-08-26T02:50:46.109Z,93.35
2022-08-26T02:51:46.216Z,93.04
2022-08-26T02:52:46.150Z,92.65
2022-08-26T02:53:46.120Z,92.34
2022-08-26T02:54:46.186Z,91.94
2022-08-26T02:55:46.076Z,92.14
2022-08-26T02:56:46.035Z,92.04
2022-08-26T02:57:46.051Z,92.44
2022-08-26T02:58:47.076Z,92.44
2022-08-26T02:59:46.078Z,92.65
2022-08-26T03:00:52.603Z,92.44
2022-08-26T03:01:46.162Z,92.34
2022-08-26T03:02:45.965Z,92.14
2022-08-26T03:03:45.985Z,91.94
2022-08-26T03:04:57.820Z,92.14
2022-08-26T03:05:46.203Z,92.24
2022-08-26T03:06:47.035Z,92.14
2022-08-26T03:07:46.272Z,92.34
2022-08-26T03:08:45.921Z,92.44
2022-08-26T03:09:45.892Z,92.54
2022-08-26T03:10:45.967Z,92.54
2022-08-26T03:11:45.958Z,92.54
2022-08-26T03:12:47.433Z,92.44
2022-08-26T03:13:45.859Z,92.65
2022-08-26T03:14:45.989Z,92.74
2022-08-26T03:15:46.028Z,92.89
2022-08-26T03:16:48.434Z,92.94
2022-08-26T03:17:45.900Z,92.84
2022-08-26T03:18:51.978Z,92.74
2022-08-26T03:19:45.789Z,92.54
2022-08-26T03:20:45.968Z,92.34
2022-08-26T03:21:47.400Z,92.29
2022-08-26T03:22:45.897Z,92.29
2022-08-26T03:23:46.091Z,92.29
2022-08-26T03:24:46.619Z,92.38
2022-08-26T03:25:45.759Z,92.69
2022-08-26T03:26:52.920Z,92.89
2022-08-26T03:27:46.006Z,92.99
2022-08-26T03:28:46.626Z,93.13
2022-08-26T03:29:45.793Z,93.33
2022-08-26T03:30:45.936Z,93.33
2022-08-26T03:31:46.875Z,93.23
2022-08-26T03:32:45.803Z,93.54
2022-08-26T03:33:45.756Z,93.38
2022-08-26T03:34:45.737Z,93.58
2022-08-26T03:35:45.638Z,92.88
2022-08-26T03:36:46.035Z,93.02
2022-08-26T03:37:45.833Z,93.32
2022-08-26T03:38:45.592Z,93.52
2022-08-26T03:39:45.526Z,93.52
2022-08-26T03:40:45.986Z,93.52
2022-08-26T03:41:46.651Z,93.93
2022-08-26T03:42:45.749Z,94.43
2022-08-26T03:43:45.571Z,94.02
2022-08-26T03:44:45.636Z,93.82
2022-08-26T03:45:46.087Z,93.57
2022-08-26T03:46:45.667Z,93.97
2022-08-26T03:47:45.532Z,94.07
2022-08-26T03:48:45.807Z,94.07
2022-08-26T03:49:45.649Z,94.17
2022-08-26T03:50:45.436Z,94.37
2022-08-26T03:51:45.479Z,94.57
2022-08-26T03:52:45.627Z,94.72
2022-08-26T03:53:45.477Z,94.92
2022-08-26T03:54:45.538Z,94.52
2022-08-26T03:55:45.797Z,93.91
2022-08-26T03:56:46.560Z,93.61
2022-08-26T03:57:45.495Z,93.66
2022-08-26T03:58:45.869Z,94.06
2022-08-26T03:59:45.373Z,93.86
2022-08-26T04:00:46.134Z,93.26
2022-08-26T04:01:45.516Z,93.46
2022-08-26T04:02:45.404Z,93.70
2022-08-26T04:03:45.291Z,93.60
2022-08-26T04:04:45.257Z,93.70
2022-08-26T04:05:45.257Z,94.00
2022-08-26T04:06:45.356Z,94.40
2022-08-26T04:07:45.343Z,94.40
2022-08-26T04:08:45.394Z,94.31
2022-08-26T04:09:45.235Z,94.20
2022-08-26T04:10:45.429Z,94.31
2022-08-26T04:11:45.399Z,94.10
2022-08-26T04:12:45.601Z,93.60
2022-08-26T04:13:45.427Z,93.10
2022-08-26T04:14:45.155Z,93.14
2022-08-26T04:15:45.337Z,92.74
2022-08-26T04:16:45.218Z,92.63
2022-08-26T04:17:45.304Z,92.74
2022-08-26T04:18:46.664Z,92.43
2022-08-26T04:19:45.089Z,92.54
2022-08-26T04:20:45.099Z,92.63
2022-08-26T04:21:45.075Z,93.24
2022-08-26T04:22:45.060Z,94.25
2022-08-26T04:23:47.066Z,94.19
2022-08-26T04:24:45.105Z,93.59
2022-08-26T04:25:45.019Z,93.49
2022-08-26T04:26:44.987Z,93.89
2022-08-26T04:27:44.977Z,93.69
2022-08-26T04:28:45.032Z,93.89
2022-08-26T04:29:44.967Z,94.29
2022-08-26T04:30:45.115Z,94.70
2022-08-26T04:31:45.066Z,94.59
2022-08-26T04:32:44.946Z,94.09
2022-08-26T04:33:44.983Z,94.19
2022-08-26T04:34:45.065Z,94.90
2022-08-26T04:35:44.896Z,94.39
2022-08-26T04:36:45.072Z,93.89
2022-08-26T04:37:45.147Z,93.59
2022-08-26T04:38:44.891Z,93.59
2022-08-26T04:39:44.854Z,93.59
2022-08-26T04:40:46.745Z,93.79
2022-08-26T04:41:44.873Z,93.59
2022-08-26T04:42:44.871Z,93.29
2022-08-26T04:43:44.821Z,93.18
2022-08-26T04:44:45.856Z,92.88
2022-08-26T04:45:44.781Z,92.98
2022-08-26T04:46:44.838Z,93.38
2022-08-26T04:47:44.766Z,93.89
2022-08-26T04:48:48.473Z,94.19
2022-08-26T04:49:44.930Z,94.39
2022-08-26T04:50:44.934Z,93.99
2022-08-26T04:58:35.913Z,94.35
2022-08-26T05:32:46.967Z,96.28
2022-08-26T05:33:47.951Z,96.59
2022-08-26T05:34:47.877Z,96.69
2022-08-26T05:35:47.933Z,97.29
2022-08-26T05:36:47.853Z,97.55
2022-08-26T05:37:48.096Z,97.55
2022-08-26T05:38:47.833Z,97.75
2022-08-26T05:39:51.019Z,98.15
2022-08-26T05:40:47.868Z,98.20
2022-08-26T05:41:47.811Z,98.30
2022-08-26T05:42:47.812Z,98.20
2022-08-26T05:43:47.823Z,98.20
2022-08-26T05:44:55.703Z,98.05
2022-08-26T05:45:47.754Z,98.05
2022-08-26T05:46:47.800Z,98.16
2022-08-26T05:47:47.727Z,98.16
2022-08-26T05:48:47.832Z,98.25
2022-08-26T05:49:49.471Z,98.21
2022-08-26T05:50:47.708Z,98.11
2022-08-26T05:51:48.101Z,98.11
2022-08-26T05:52:47.654Z,98.21
2022-08-26T05:53:54.770Z,98.31
2022-08-26T05:54:47.832Z,98.51
2022-08-26T05:55:47.702Z,98.41
2022-08-26T05:56:47.628Z,98.21
2022-08-26T05:57:47.815Z,97.86
2022-08-26T05:58:47.795Z,97.56
2022-08-26T05:59:47.581Z,97.26
2022-08-26T06:00:48.536Z,96.96
2022-08-26T06:01:47.689Z,96.86
2022-08-26T06:02:48.427Z,96.66
2022-08-26T06:03:47.592Z,96.45
2022-08-26T06:04:47.549Z,96.36
2022-08-26T06:05:47.538Z,96.36
2022-08-26T06:06:47.509Z,96.26
2022-08-26T06:07:47.552Z,96.15
2022-08-26T06:08:47.498Z,96.06
2022-08-26T06:09:47.501Z,96.06
2022-08-26T06:10:47.459Z,95.91
2022-08-26T06:11:47.444Z,95.81
2022-08-26T06:12:47.445Z,95.81
2022-08-26T06:13:47.487Z,95.81
2022-08-26T06:14:49.025Z,95.81
2022-08-26T06:15:47.615Z,95.91
2022-08-26T06:16:47.481Z,95.71
2022-08-26T06:17:47.498Z,95.81
2022-08-26T06:18:47.689Z,95.51
2022-08-26T06:21:04.038Z,95.01
2022-08-26T06:22:04.484Z,94.66
2022-08-26T06:23:04.597Z,94.26
2022-08-26T06:24:04.505Z,94.26
2022-08-26T06:25:04.412Z,94.16
2022-08-26T06:26:04.430Z,93.96
2022-08-26T06:27:04.466Z,94.16
2022-08-26T06:28:04.416Z,94.26
2022-08-26T06:29:04.341Z,94.06
2022-08-26T06:30:04.346Z,93.86
2022-08-26T06:31:04.550Z,93.51
2022-08-26T06:32:04.348Z,93.31
2022-08-26T06:33:04.431Z,93.41
2022-08-26T06:34:07.367Z,93.21
2022-08-26T06:35:04.309Z,93.21
2022-08-26T06:36:05.014Z,93.21
2022-08-26T06:37:04.333Z,93.11
2022-08-26T06:38:04.721Z,93.01
2022-08-26T06:39:04.234Z,92.81
2022-08-26T06:40:04.718Z,92.91
2022-08-26T06:41:04.375Z,92.41
2022-08-26T06:42:06.256Z,92.41
2022-08-26T06:43:04.383Z,92.61
2022-08-26T06:44:04.352Z,92.27
2022-08-26T06:45:04.450Z,91.97
2022-08-26T06:46:04.989Z,91.86
2022-08-26T06:47:04.398Z,91.86
2022-08-26T06:48:04.973Z,91.16
2022-08-26T06:49:04.209Z,91.36
2022-08-26T06:50:04.360Z,91.47
2022-08-26T06:51:04.212Z,90.77
2022-08-26T06:52:04.229Z,89.76
2022-08-26T06:53:04.337Z,89.66
2022-08-26T06:54:04.084Z,89.76
2022-08-26T06:55:04.118Z,89.96
2022-08-26T06:56:04.388Z,90.26
2022-08-26T06:57:04.107Z,90.32
2022-08-26T06:58:05.178Z,89.92
2022-08-26T06:59:04.295Z,89.72
2022-08-26T07:00:04.081Z,89.72
2022-08-26T07:01:11.201Z,89.82
2022-08-26T07:02:04.844Z,89.82
2022-08-26T07:03:07.555Z,90.02
2022-08-26T07:04:04.375Z,90.12
2022-08-26T07:05:04.159Z,89.82
2022-08-26T07:06:04.289Z,89.68
2022-08-26T07:07:04.139Z,89.78
2022-08-26T07:08:04.089Z,88.98
2022-08-26T07:09:04.245Z,89.28
2022-08-26T07:10:04.180Z,89.28
2022-08-26T07:11:04.162Z,88.93
2022-08-26T07:12:03.946Z,88.64
2022-08-26T07:13:04.084Z,88.49
2022-08-26T07:14:04.369Z,88.29
2022-08-26T07:15:03.969Z,87.79
2022-08-26T07:16:04.509Z,87.95
2022-08-26T07:17:03.996Z,88.05
2022-08-26T07:18:03.868Z,88.65
2022-08-26T07:19:10.988Z,89.65
2022-08-26T07:20:03.829Z,90.45
2022-08-26T07:21:03.806Z,90.50
2022-08-26T07:22:04.242Z,90.91
2022-08-26T07:23:03.762Z,91.75
2022-08-26T07:24:03.765Z,92.69
2022-08-26T07:25:03.818Z,93.49
2022-08-26T07:26:03.814Z,93.84
2022-08-26T07:27:03.705Z,94.34
2022-08-26T07:28:03.713Z,94.13
2022-08-26T07:29:03.686Z,94.23
2022-08-26T07:30:03.686Z,94.43
2022-08-26T07:31:03.772Z,94.68
2022-08-26T07:32:03.752Z,94.88
2022-08-26T07:33:03.667Z,94.54
2022-08-26T07:34:03.633Z,94.54
2022-08-26T07:35:03.637Z,94.54
2022-08-26T07:36:04.164Z,94.34
2022-08-26T07:37:03.641Z,94.23
2022-08-26T07:38:03.673Z,94.73
2022-08-26T07:39:03.641Z,94.64
2022-08-26T07:40:03.620Z,94.64
2022-08-26T07:41:03.625Z,94.73
2022-08-26T07:42:07.393Z,94.64
2022-08-26T07:43:03.566Z,94.64
2022-08-26T07:44:04.335Z,94.13
2022-08-26T07:45:03.820Z,94.23
2022-08-26T07:46:03.535Z,94.58
2022-08-26T07:47:03.520Z,94.73
2022-08-26T07:48:04.060Z,94.64
2022-08-26T07:49:03.557Z,94.34
2022-08-26T07:50:03.512Z,94.64
2022-08-26T07:51:03.658Z,94.54
2022-08-26T07:52:03.462Z,94.04
2022-08-26T07:53:04.563Z,93.84
2022-08-26T07:54:03.439Z,93.84
2022-08-26T07:55:03.416Z,93.74
2022-08-26T07:56:03.582Z,93.19
2022-08-26T07:57:05.136Z,92.79
2022-08-26T07:58:03.463Z,92.99
2022-08-26T07:59:04.331Z,92.99
2022-08-26T08:00:03.359Z,92.79
2022-08-26T08:01:03.406Z,93.24
2022-08-26T08:02:03.493Z,92.99
2022-08-26T08:03:03.527Z,92.49
2022-08-26T08:04:03.507Z,92.69
2022-08-26T08:05:03.424Z,92.89
2022-08-26T08:06:03.316Z,92.49
2022-08-26T08:07:03.316Z,92.25
2022-08-26T08:08:19.735Z,91.95
2022-08-26T08:09:03.321Z,91.75
2022-08-26T08:10:06.701Z,91.25
2022-08-26T08:11:03.331Z,91.55
2022-08-26T08:12:03.247Z,91.25
2022-08-26T08:13:03.203Z,90.91
2022-08-26T08:14:03.364Z,90.00
2022-08-26T08:15:03.244Z,90.20
2022-08-26T08:16:03.208Z,90.41
2022-08-26T08:17:04.038Z,90.20
2022-08-26T08:18:03.166Z,90.20
2022-08-26T08:19:03.807Z,90.41
2022-08-26T08:20:03.220Z,90.20
2022-08-26T08:21:20.931Z,90.20
2022-08-26T08:22:03.111Z,90.30
2022-08-26T08:23:03.140Z,90.80
2022-08-26T08:24:05.021Z,90.70
2022-08-26T08:25:03.094Z,90.80
2022-08-26T08:26:03.177Z,90.30
2022-08-26T08:27:03.063Z,90.61
2022-08-26T08:28:03.353Z,90.50
2022-08-26T08:29:03.045Z,90.41
2022-08-26T08:30:03.093Z,90.30
2022-08-26T08:31:03.385Z,90.41
2022-08-26T08:32:04.125Z,90.65
2022-08-26T08:33:03.491Z,90.95
2022-08-26T08:34:03.065Z,91.15
2022-08-26T08:35:03.035Z,91.55
2022-08-26T08:36:02.997Z,91.35
2022-08-26T08:37:04.376Z,91.35
2022-08-26T08:38:04.293Z,91.05
2022-08-26T08:39:03.042Z,91.05
2022-08-26T08:40:02.982Z,91.35
2022-08-26T08:41:05.535Z,91.49
2022-08-26T08:42:02.886Z,91.39
2022-08-26T08:43:02.886Z,91.79
2022-08-26T08:44:02.937Z,91.69
2022-08-26T08:45:02.925Z,91.45
2022-08-26T08:46:02.973Z,91.25
2022-08-26T08:47:03.129Z,91.05
2022-08-26T08:48:02.877Z,91.05
2022-08-26T08:49:02.946Z,90.84
2022-08-26T08:50:02.888Z,90.75
2022-08-26T08:51:03.475Z,90.84
2022-08-26T08:52:02.925Z,90.84
2022-08-26T08:53:02.825Z,91.15
2022-08-26T08:54:03.065Z,90.84
2022-08-26T08:55:02.826Z,91.15
2022-08-26T08:56:02.786Z,91.05
2022-08-26T08:57:02.762Z,91.05
2022-08-26T08:58:02.791Z,90.84
2022-08-26T08:59:02.755Z,91.09
2022-08-26T09:00:02.693Z,91.09
2022-08-26T09:01:02.732Z,91.69
2022-08-26T09:02:03.069Z,91.69
2022-08-26T09:03:02.691Z,91.89
2022-08-26T09:04:02.627Z,91.79
2022-08-26T09:05:02.674Z,92.43
2022-08-26T09:06:03.476Z,92.33
2022-08-26T09:07:02.764Z,92.63
2022-08-26T09:08:02.860Z,92.54
2022-08-26T09:09:02.653Z,92.24
2022-08-26T09:10:02.658Z,92.33
2022-08-26T09:11:02.605Z,92.33
2022-08-26T09:12:02.793Z,92.03
2022-08-26T09:13:02.676Z,92.43
2022-08-26T09:14:02.587Z,92.83
2022-08-26T09:15:03.630Z,93.28
2022-08-26T09:16:02.527Z,93.48
2022-08-26T09:17:02.621Z,93.78
2022-08-26T09:18:02.541Z,93.88
2022-08-26T09:19:02.496Z,93.68
2022-08-26T09:20:02.809Z,93.54
2022-08-26T09:21:03.309Z,93.04
2022-08-26T09:22:06.979Z,92.33
2022-08-26T09:23:02.492Z,92.24
2022-08-26T09:24:02.438Z,91.79
2022-08-26T09:25:02.404Z,91.59
2022-08-26T09:26:02.542Z,91.59
2022-08-26T09:27:02.406Z,91.99
2022-08-26T09:28:02.626Z,91.89
2022-08-26T09:29:02.383Z,91.49
2022-08-26T09:30:02.372Z,90.84
2022-08-26T09:31:03.517Z,90.45
2022-08-26T09:32:02.391Z,90.89
2022-08-26T09:33:02.335Z,91.79
2022-08-26T09:34:02.364Z,92.33
2022-08-26T09:35:02.389Z,92.78
2022-08-26T09:36:02.405Z,93.18
2022-08-26T09:37:04.527Z,93.38
2022-08-26T09:38:02.388Z,93.68
2022-08-26T09:39:02.288Z,93.58
2022-08-26T09:40:02.521Z,93.13
2022-08-26T09:41:02.303Z,92.93
2022-08-26T09:42:02.349Z,92.54
2022-08-26T09:43:02.230Z,92.74
2022-08-26T09:44:02.300Z,92.63
2022-08-26T09:45:02.324Z,92.83
2022-08-26T09:46:02.318Z,92.24
2022-08-26T09:47:02.215Z,92.19
2022-08-26T09:48:02.315Z,91.29
2022-08-26T09:49:02.204Z,90.55
2022-08-26T09:50:03.323Z,90.45
2022-08-26T09:51:02.199Z,89.61
2022-08-26T09:52:02.436Z,89.90
2022-08-26T09:53:02.213Z,89.95
2022-08-26T09:54:02.312Z,90.05
2022-08-26T09:55:02.164Z,90.45
2022-08-26T09:56:02.224Z,89.81
2022-08-26T09:57:02.135Z,89.16
2022-08-26T09:58:04.124Z,88.67
2022-08-26T09:59:02.337Z,88.17
2022-08-26T10:00:02.839Z,88.17
2022-08-26T10:01:03.053Z,88.26
2022-08-26T10:03:02.182Z,88.26
2022-08-26T10:04:02.056Z,88.46
2022-08-26T10:05:08.983Z,88.51
2022-08-26T10:06:02.002Z,89.31
2022-08-26T10:07:02.027Z,89.20
2022-08-26T10:08:02.025Z,89.20
2022-08-26T10:09:03.594Z,89.35
2022-08-26T10:10:02.012Z,89.35
2022-08-26T10:11:01.963Z,89.75
2022-08-26T10:12:01.953Z,89.35
2022-08-26T10:13:02.080Z,89.45
2022-08-26T10:14:01.967Z,89.25
2022-08-26T10:15:01.974Z,88.95
2022-08-26T10:16:01.874Z,89.15
2022-08-26T10:17:01.993Z,88.90
2022-08-26T10:18:01.983Z,88.90
2022-08-26T10:19:02.161Z,88.31
2022-08-26T10:20:02.263Z,88.31
2022-08-26T10:21:01.884Z,88.31
2022-08-26T10:22:02.132Z,88.21
2022-08-26T10:23:02.028Z,87.81
2022-08-26T10:24:01.985Z,87.71
2022-08-26T10:25:02.748Z,87.61
2022-08-26T10:26:02.079Z,87.46
2022-08-26T10:27:02.146Z,87.16
2022-08-26T10:28:01.895Z,87.81
2022-08-26T10:29:01.964Z,88.35
2022-08-26T10:30:01.957Z,88.65
2022-08-26T10:31:02.649Z,88.40
2022-08-26T10:32:03.592Z,88.31
2022-08-26T10:33:02.030Z,88.45
2022-08-26T10:34:01.791Z,89.25
2022-08-26T10:35:01.993Z,89.69
2022-08-26T10:36:01.964Z,89.89
2022-08-26T10:37:14.473Z,90.39
2022-08-26T10:38:01.987Z,90.39
2022-08-26T10:39:02.020Z,90.29
2022-08-26T10:40:01.710Z,89.89
2022-08-26T10:41:01.591Z,89.99
2022-08-26T10:42:01.643Z,89.75
2022-08-26T10:43:01.709Z,89.65
2022-08-26T10:44:01.825Z,89.69
2022-08-26T10:45:01.542Z,89.79
2022-08-26T10:46:01.623Z,90.19
2022-08-26T10:47:01.576Z,90.19
2022-08-26T10:48:01.590Z,89.69
2022-08-26T10:49:03.215Z,90.29
2022-08-26T10:50:03.430Z,89.89
2022-08-26T10:51:01.493Z,90.09
2022-08-26T10:52:01.585Z,90.29
2022-08-26T10:53:01.650Z,89.79
2022-08-26T10:54:01.688Z,89.55
2022-08-26T10:55:01.620Z,88.90
2022-08-26T10:56:01.537Z,89.25
2022-08-26T10:57:01.505Z,89.01
2022-08-26T10:58:05.031Z,88.60
2022-08-26T10:59:01.456Z,88.60
2022-08-26T11:00:01.703Z,88.60
2022-08-26T11:01:02.524Z,89.01
2022-08-26T11:02:03.859Z,88.65
2022-08-26T11:03:01.342Z,89.25
2022-08-26T11:04:01.398Z,89.99
2022-08-26T11:05:01.335Z,89.95
2022-08-26T11:06:01.333Z,89.95
2022-08-26T11:07:01.350Z,90.35
2022-08-26T11:08:01.407Z,90.39
2022-08-26T11:09:01.279Z,90.79
2022-08-26T11:10:01.301Z,90.49
2022-08-26T11:11:01.281Z,90.09
2022-08-26T11:12:09.991Z,89.75
2022-08-26T11:13:01.761Z,89.55
2022-08-26T11:14:01.311Z,89.55
2022-08-26T11:15:01.280Z,89.15
2022-08-26T11:16:01.409Z,88.65
2022-08-26T11:17:01.328Z,88.25
2022-08-26T11:18:01.158Z,88.75
2022-08-26T11:19:01.144Z,88.10
2022-08-26T11:20:03.887Z,87.61
2022-08-26T11:21:01.135Z,87.30
2022-08-26T11:22:01.157Z,87.30
2022-08-26T11:23:01.130Z,87.51
2022-08-26T11:24:01.135Z,87.11
2022-08-26T11:25:01.098Z,87.41
2022-08-26T11:26:01.158Z,87.41
2022-08-26T11:27:01.073Z,86.57
2022-08-26T11:28:01.135Z,86.47
2022-08-26T11:29:01.038Z,85.83
2022-08-26T11:30:01.066Z,85.72
2022-08-26T11:31:01.031Z,84.73
2022-08-26T11:32:01.111Z,84.79
2022-08-26T11:33:01.042Z,84.69
2022-08-26T11:34:01.057Z,83.95
2022-08-26T11:35:01.039Z,83.75
2022-08-26T11:36:00.985Z,83.45
2022-08-26T11:37:00.962Z,83.65
2022-08-26T11:38:01.015Z,84.49
2022-08-26T11:39:00.988Z,84.59
2022-08-26T11:40:01.010Z,83.75
2022-08-26T11:41:00.912Z,83.79
2022-08-26T11:42:00.914Z,83.59
2022-08-26T11:43:00.906Z,84.29
2022-08-26T11:44:01.299Z,84.19
2022-08-26T11:45:05.402Z,83.55
2022-08-26T11:46:00.954Z,83.35
2022-08-26T11:47:00.881Z,82.81
2022-08-26T11:48:00.898Z,82.32
2022-08-26T11:49:00.839Z,82.12
2022-08-26T11:50:00.843Z,81.98
2022-08-26T11:51:00.822Z,81.98
2022-08-26T11:52:00.849Z,81.34
2022-08-26T11:53:00.805Z,80.94
2022-08-26T11:54:00.776Z,80.54
2022-08-26T11:55:00.775Z,80.15
2022-08-26T11:56:01.304Z,80.11
2022-08-26T11:57:02.895Z,79.51
2022-08-26T11:58:00.752Z,79.11
2022-08-26T11:59:02.515Z,78.97
2022-08-26T12:00:00.714Z,78.97
2022-08-26T12:01:00.705Z,78.88
2022-08-26T12:02:00.760Z,78.78
2022-08-26T12:03:00.723Z,79.08
2022-08-26T12:04:01.503Z,78.97
2022-08-26T12:05:00.662Z,78.88
2022-08-26T12:06:00.655Z,79.31
2022-08-26T12:07:00.665Z,79.51
2022-08-26T12:08:00.689Z,79.81
2022-08-26T12:09:01.625Z,80.00
2022-08-26T12:10:00.648Z,79.17
2022-08-26T12:11:00.622Z,79.31
2022-08-26T12:12:00.606Z,79.97
2022-08-26T12:13:00.657Z,80.15
2022-08-26T12:14:00.617Z,80.84
2022-08-26T12:15:00.633Z,81.14
2022-08-26T12:16:00.675Z,81.58
2022-08-26T12:17:00.582Z,82.21
2022-08-26T12:18:00.507Z,81.92
2022-08-26T12:19:00.599Z,81.48
2022-08-26T12:20:00.577Z,81.77
2022-08-26T12:21:00.567Z,82.18
2022-08-26T12:22:00.527Z,82.37
2022-08-26T12:23:00.485Z,81.58
2022-08-26T12:24:00.465Z,81.88
2022-08-26T12:25:00.449Z,82.51
2022-08-26T12:26:00.625Z,82.21
2022-08-26T12:27:02.032Z,82.57
2022-08-26T12:28:00.485Z,82.12
2022-08-26T12:29:12.720Z,82.95
2022-08-26T12:30:00.406Z,82.75
2022-08-26T12:31:00.973Z,82.71
2022-08-26T12:32:00.897Z,83.01
2022-08-26T12:33:00.342Z,83.35
2022-08-26T12:34:00.385Z,83.59
2022-08-26T12:35:00.496Z,84.49
2022-08-26T12:36:00.514Z,84.89
2022-08-26T12:38:00.586Z,85.13
2022-08-26T12:39:00.400Z,85.33
2022-08-26T12:40:00.417Z,85.03
2022-08-26T12:41:00.372Z,85.13
2022-08-26T12:42:00.257Z,84.73
2022-08-26T12:43:00.483Z,85.03
2022-08-26T12:44:01.208Z,84.83
2022-08-26T12:45:00.500Z,85.53
2022-08-26T12:46:01.632Z,84.63
2022-08-26T12:47:00.262Z,83.89
2022-08-26T12:48:00.171Z,83.99
2022-08-26T12:49:00.163Z,84.43
2022-08-26T12:50:00.385Z,84.53
2022-08-26T12:51:00.250Z,83.99
2022-08-26T12:52:00.335Z,83.45
2022-08-26T12:53:00.582Z,83.95
2022-08-26T12:54:00.268Z,82.92
2022-08-26T12:55:00.264Z,82.42
2022-08-26T12:56:00.194Z,81.92
2022-08-26T12:57:00.186Z,81.38
2022-08-26T12:58:00.223Z,79.37
2022-08-26T12:59:00.229Z,78.54
2022-08-26T13:00:00.410Z,78.84
2022-08-26T13:01:00.549Z,78.64
2022-08-26T13:02:00.533Z,78.38
2022-08-26T13:03:00.179Z,78.78
2022-08-26T13:04:00.428Z,77.41
2022-08-26T13:05:01.041Z,76.42
2022-08-26T13:06:00.229Z,75.48
2022-08-26T13:07:00.130Z,74.82
2022-08-26T13:08:00.187Z,74.32
2022-08-26T13:09:01.733Z,74.99
2022-08-26T13:10:00.155Z,76.32
2022-08-26T13:10:59.972Z,75.59
2022-08-26T13:12:02.199Z,75.38
2022-08-26T13:12:59.943Z,76.12
2022-08-26T13:13:59.994Z,78.08
2022-08-26T13:15:00.006Z,78.72
2022-08-26T13:16:00.033Z,78.42
2022-08-26T13:16:59.940Z,78.52
2022-08-26T13:17:59.984Z,78.12
2022-08-26T13:19:00.158Z,78.22
2022-08-26T13:20:03.562Z,78.28
2022-08-26T13:20:59.809Z,78.18
2022-08-26T13:21:59.889Z,77.55
2022-08-26T13:22:59.946Z,77.68
2022-08-26T13:23:59.823Z,78.18
2022-08-26T13:24:59.876Z,77.58
2022-08-26T13:25:59.911Z,77.78
2022-08-26T13:26:59.806Z,77.21
2022-08-26T13:27:59.792Z,74.12
2022-08-26T13:29:02.179Z,73.10
2022-08-26T13:30:00.034Z,72.80
2022-08-26T13:30:59.813Z,71.87
2022-08-26T13:32:00.128Z,72.93
2022-08-26T13:32:59.877Z,74.22
2022-08-26T13:33:59.935Z,74.06
2022-08-26T13:34:59.907Z,74.35
2022-08-26T13:36:01.579Z,73.93